地図

経路データ

SID SEASON NUMBER BASIN SUBBASIN NAME ISO_TIME NATURE LAT LON WMO_WIND WMO_PRES WMO_AGENCY TRACK_TYPE DIST2LAND LANDFALL IFLAG USA_AGENCY USA_ATCF_ID USA_LAT USA_LON USA_RECORD USA_STATUS USA_WIND USA_PRES USA_SSHS USA_R34_NE USA_R34_SE USA_R34_SW USA_R34_NW USA_R50_NE USA_R50_SE USA_R50_SW USA_R50_NW USA_R64_NE USA_R64_SE USA_R64_SW USA_R64_NW USA_POCI USA_ROCI USA_RMW USA_EYE TOKYO_LAT TOKYO_LON TOKYO_GRADE TOKYO_WIND TOKYO_PRES TOKYO_R50_DIR TOKYO_R50_LONG TOKYO_R50_SHORT TOKYO_R30_DIR TOKYO_R30_LONG TOKYO_R30_SHORT TOKYO_LAND CMA_LAT CMA_LON CMA_CAT CMA_WIND CMA_PRES HKO_LAT HKO_LON HKO_CAT HKO_WIND HKO_PRES NEWDELHI_LAT NEWDELHI_LON NEWDELHI_GRADE NEWDELHI_WIND NEWDELHI_PRES NEWDELHI_CI NEWDELHI_DP NEWDELHI_POCI REUNION_LAT REUNION_LON REUNION_TYPE REUNION_WIND REUNION_PRES REUNION_TNUM REUNION_CI REUNION_RMW REUNION_R34_NE REUNION_R34_SE REUNION_R34_SW REUNION_R34_NW REUNION_R50_NE REUNION_R50_SE REUNION_R50_SW REUNION_R50_NW REUNION_R64_NE REUNION_R64_SE REUNION_R64_SW REUNION_R64_NW BOM_LAT BOM_LON BOM_TYPE BOM_WIND BOM_PRES BOM_TNUM BOM_CI BOM_RMW BOM_R34_NE BOM_R34_SE BOM_R34_SW BOM_R34_NW BOM_R50_NE BOM_R50_SE BOM_R50_SW BOM_R50_NW BOM_R64_NE BOM_R64_SE BOM_R64_SW BOM_R64_NW BOM_ROCI BOM_POCI BOM_EYE BOM_POS_METHOD BOM_PRES_METHOD NADI_LAT NADI_LON NADI_CAT NADI_WIND NADI_PRES WELLINGTON_LAT WELLINGTON_LON WELLINGTON_WIND WELLINGTON_PRES DS824_LAT DS824_LON DS824_STAGE DS824_WIND DS824_PRES TD9636_LAT TD9636_LON TD9636_STAGE TD9636_WIND TD9636_PRES TD9635_LAT TD9635_LON TD9635_WIND TD9635_PRES TD9635_ROCI NEUMANN_LAT NEUMANN_LON NEUMANN_CLASS NEUMANN_WIND NEUMANN_PRES MLC_LAT MLC_LON MLC_CLASS MLC_WIND MLC_PRES USA_GUST BOM_GUST BOM_GUST_PER REUNION_GUST REUNION_GUST_PER USA_SEAHGT USA_SEARAD_NE USA_SEARAD_SE USA_SEARAD_SW USA_SEARAD_NW STORM_SPEED STORM_DIR
1905181N21087 1905 23 NI BB NOT_NAMED 1905-06-30 00:00:00 TS 20.6000 87.2000 main 23 0 _________O____ -1 20.6000 87.2000 TC 45 8 275
1905181N21087 1905 23 NI BB NOT_NAMED 1905-06-30 03:00:00 TS 20.6303 86.8001 main 0 0 _________PO___ -1 20.6454 86.6001 TC 45 20.6000 87.2000 3 9 275
1905181N21087 1905 23 NI BB NOT_NAMED 1905-06-30 06:00:00 TS 20.6766 86.2467 main 0 0 _________OP___ -1 20.7000 86.0000 TC 45 20.6416 86.6167 3 11 276
1905181N21087 1905 23 NI BB NOT_NAMED 1905-06-30 09:00:00 TS 20.7424 85.6685 main 0 0 _________PP___ -1 20.7773 85.3998 TC 45 20.6958 86.0266 3 11 279
1905181N21087 1905 23 NI BB NOT_NAMED 1905-06-30 12:00:00 TS 20.8386 85.1117 main 0 0 _________OP___ -1 20.9000 84.8000 TC 45 20.7771 85.4234 3 11 283
1905181N21087 1905 23 NI BB NOT_NAMED 1905-06-30 15:00:00 TS 20.9886 84.5000 main 0 0 _________PO___ -1 21.0773 84.1999 TC 41 20.9000 84.8000 3 12 287
1905181N21087 1905 23 NI BB NOT_NAMED 1905-06-30 18:00:00 TS 21.1870 83.8780 main 0 0 _________OP___ -1 21.3000 83.6000 TC 37 21.0741 84.1560 3 13 290
1905181N21087 1905 23 NI BB NOT_NAMED 1905-06-30 21:00:00 TS 21.4166 83.2405 main 0 0 _________PP___ -1 21.5426 82.9626 TC 33 21.2906 83.5185 3 12 293
1905181N21087 1905 23 NI BB NOT_NAMED 1905-07-01 00:00:00 TS 21.6684 82.6608 main 0 0 _________OP___ -1 21.8000 82.4000 TC 30 21.5368 82.9215 3 11 298
1905181N21087 1905 23 NI BB NOT_NAMED 1905-07-01 03:00:00 TS 21.9211 82.2023 main 0 0 _________PO___ -1 22.0422 82.0047 TC 30 21.8000 82.4000 1 9 304
1905181N21087 1905 23 NI BB NOT_NAMED 1905-07-01 06:00:00 TS 22.1798 81.8336 main 0 0 _________OP___ -1 22.3000 81.7000 TC 30 22.0597 81.9671 1 9 310
1905181N21087 1905 23 NI BB NOT_NAMED 1905-07-01 09:00:00 TS 22.4669 81.4961 main 0 0 _________PP___ -1 22.6000 81.3775 TC 30 22.3339 81.6146 1 8 315
1905181N21087 1905 23 NI BB NOT_NAMED 1905-07-01 12:00:00 TS 22.7581 81.2149 main 0 0 _________OP___ -1 22.9000 81.1000 TC 30 22.6163 81.3298 1 7 320
1905181N21087 1905 23 NI BB NOT_NAMED 1905-07-01 15:00:00 TS 23.0250 80.9849 main 0 0 _________PO___ -1 23.1500 80.8699 TC 30 22.9000 81.1000 1 7 323
1905181N21087 1905 23 NI BB NOT_NAMED 1905-07-01 18:00:00 TS 23.2772 80.7915 main 0 0 _________OP___ -1 23.4000 80.7000 TC 30 23.1544 80.8829 1 6 329
1905181N21087 1905 23 NI BB NOT_NAMED 1905-07-01 21:00:00 TS 23.5448 80.6509 main 0 0 _________PP___ -1 23.6775 80.5848 TC 30 23.4121 80.7169 1 6 338
1905181N21087 1905 23 NI BB NOT_NAMED 1905-07-02 00:00:00 TS 23.8444 80.5462 main 0 0 _________OP___ -1 24.0000 80.5000 TC 30 23.6889 80.5925 1 7 344
1905181N21087 1905 23 NI BB NOT_NAMED 1905-07-02 03:00:00 TS 24.1925 80.4426 main 0 0 _________PO___ -1 24.3850 80.3851 TC 30 24.0000 80.5000 1 8 347
1905181N21087 1905 23 NI BB NOT_NAMED 1905-07-02 06:00:00 TS 24.5861 80.3525 main 0 0 _________OP___ -1 24.8000 80.3000 TC 30 24.3721 80.4050 1 8 351
1905181N21087 1905 23 NI BB NOT_NAMED 1905-07-02 09:00:00 TS 24.9925 80.3088 main 0 0 _________PP___ -1 25.2075 80.2774 TC 30 24.7774 80.3401 1 8 357
1905181N21087 1905 23 NI BB NOT_NAMED 1905-07-02 12:00:00 TS 25.3970 80.3026 main 0 0 _________OP___ -1 25.6000 80.3000 TC 30 25.1940 80.3051 1 8 1
1905181N21087 1905 23 NI BB NOT_NAMED 1905-07-02 15:00:00 TS 25.7788 80.3212 main 0 0 _________PO___ -1 25.9575 80.3425 TC 30 25.6000 80.3000 1 7 2
1905181N21087 1905 23 NI BB NOT_NAMED 1905-07-02 18:00:00 TS 26.1163 80.3563 main 0 0 _________OP___ -1 26.3000 80.4000 TC 30 25.9785 80.3235 1 7 6
1905181N21087 1905 23 NI BB NOT_NAMED 1905-07-02 21:00:00 TS 26.4585 80.4027 main 0 0 _________PP___ -1 26.6475 80.4525 TC 30 26.3325 80.3695 1 7 8
1905181N21087 1905 23 NI BB NOT_NAMED 1905-07-03 00:00:00 TS 26.7802 80.4539 main 0 0 _________OP___ -1 27.0000 80.5000 TC 30 26.6703 80.4308 1 6 9
1905181N21087 1905 23 NI BB NOT_NAMED 1905-07-03 03:00:00 NR 27.0000 80.5000 main 0 __________O___ -1 TC 27.0000 80.5000 1 4 11

IBTrACS Databaseについて

本データベースは、米国NOAAが公開する1842年以降の世界の熱帯低気圧のベストトラックデータアーカイブInternational Best Track Archive for Climate Stewardship (IBTrACS)を、ウェブで閲覧しやすい形式に変換したものです。

最終更新日:2021-10-25